Time;durP1;ratioP1;P1;durP2;ratioP2;P2;SDS_P1;SDS_P2;PMS_P1;PMS_P2;Temp;Humidity;BMP_temperature;BMP_pressure;BME280_temperature;BME280_humidity;BME280_pressure;Samples;Min_cycle;Max_cycle;Signal;HPM_P1;HPM_P2
2022/11/07 00:03:41;;;;;;;8.55;3.00;;;;;;;9.91;100.00;100476.66;10544915;28;20048;-70
2022/11/07 00:08:44;;;;;;;4.50;2.95;;;;;;;9.74;100.00;100483.47;10544634;28;20430;-70
2022/11/07 00:13:47;;;;;;;6.47;3.13;;;;;;;9.63;100.00;100489.16;10542376;28;20069;-70
2022/11/07 00:18:49;;;;;;;4.93;2.90;;;;;;;9.57;100.00;100496.38;10545296;28;20059;-67
2022/11/07 00:23:50;;;;;;;5.35;2.50;;;;;;;9.47;100.00;100496.78;10543958;28;20420;-66
2022/11/07 00:28:53;;;;;;;6.70;3.40;;;;;;;9.43;100.00;100496.97;10543773;28;20143;-67
2022/11/07 00:33:56;;;;;;;8.82;3.03;;;;;;;9.43;100.00;100500.44;10543831;28;20098;-68
2022/11/07 00:38:57;;;;;;;8.30;3.45;;;;;;;9.44;100.00;100499.53;10543874;28;20114;-68
2022/11/07 00:44:00;;;;;;;9.25;3.53;;;;;;;9.38;100.00;100499.81;10541638;28;20056;-64
2022/11/07 00:49:02;;;;;;;5.25;3.22;;;;;;;9.34;100.00;100500.84;10543384;28;20044;-65
2022/11/07 00:54:05;;;;;;;7.18;2.97;;;;;;;9.38;100.00;100508.44;10541541;28;20553;-70
2022/11/07 00:59:08;;;;;;;6.65;3.00;;;;;;;9.44;100.00;100511.72;10543204;28;20048;-69
2022/11/07 01:09:32;;;;;;;8.55;2.90;;;;;;;9.45;100.00;100516.00;10542102;28;20044;-66
2022/11/07 01:14:36;;;;;;;9.07;3.50;;;;;;;9.46;100.00;100526.38;10540207;28;20044;-67
2022/11/07 01:19:38;;;;;;;6.88;3.00;;;;;;;9.43;100.00;100531.69;10541925;28;20048;-67
2022/11/07 01:24:40;;;;;;;6.88;3.17;;;;;;;9.46;100.00;100552.41;10541676;28;20525;-65
2022/11/07 01:29:44;;;;;;;7.07;3.00;;;;;;;9.61;100.00;100544.88;10541247;28;20052;-68
2022/11/07 01:34:46;;;;;;;7.97;3.10;;;;;;;9.61;100.00;100544.88;10541475;28;20048;-68
2022/11/07 01:39:48;;;;;;;6.53;2.72;;;;;;;9.69;100.00;100553.19;10540883;28;20048;-66
2022/11/07 01:44:58;;;;;;;5.78;2.80;;;;;;;9.79;100.00;100541.44;10538869;28;20072;-68
2022/11/07 01:50:01;;;;;;;5.75;2.60;;;;;;;9.84;100.00;100541.25;10540762;28;20093;-67
2022/11/07 01:55:10;;;;;;;10.02;2.75;;;;;;;9.89;100.00;100541.03;10540420;28;20101;-68
2022/11/07 02:00:18;;;;;;;6.70;2.85;;;;;;;9.80;100.00;100550.09;10540175;28;20480;-69
2022/11/07 02:05:31;;;;;;;6.72;2.70;;;;;;;9.90;100.00;100547.94;10539808;28;20044;-66
2022/11/07 02:10:35;;;;;;;7.25;2.88;;;;;;;9.88;100.00;100557.56;10540173;28;20048;-66
2022/11/07 02:15:38;;;;;;;11.40;3.85;;;;;;;9.78;100.00;100555.38;10537516;28;20044;-66
2022/11/07 02:20:40;;;;;;;5.50;2.85;;;;;;;9.70;100.00;100560.09;10539427;28;20762;-70
2022/11/07 02:25:44;;;;;;;11.98;3.20;;;;;;;9.68;100.00;100546.25;10539585;28;20097;-68
2022/11/07 02:30:45;;;;;;;8.48;2.63;;;;;;;9.65;100.00;100557.66;10539460;28;20086;-68
2022/11/07 02:35:51;;;;;;;8.70;3.00;;;;;;;9.61;100.00;100547.47;10538934;28;20115;-73
2022/11/07 02:40:58;;;;;;;9.60;3.08;;;;;;;9.73;100.00;100553.91;10538615;28;20500;-71
2022/11/07 02:46:07;;;;;;;9.18;3.55;;;;;;;9.69;100.00;100553.19;10536859;28;20120;-72
2022/11/07 02:51:08;;;;;;;11.80;3.38;;;;;;;9.68;100.00;100543.66;10538221;28;20389;-72
2022/11/07 02:56:13;;;;;;;6.15;2.80;;;;;;;9.70;100.00;100557.47;10538738;28;20059;-71
2022/11/07 03:01:15;;;;;;;9.27;3.10;;;;;;;9.59;100.00;100541.47;10538505;28;20058;-70
2022/11/07 03:06:20;;;;;;;11.60;3.30;;;;;;;9.62;100.00;100546.53;10537837;28;20148;-71
2022/11/07 03:11:23;;;;;;;8.27;3.10;;;;;;;9.64;100.00;100549.91;10535548;28;20101;-73
2022/11/07 03:16:26;;;;;;;6.47;2.75;;;;;;;9.65;100.00;100551.63;10543790;28;20105;-70
2022/11/07 03:21:28;;;;;;;12.35;3.25;;;;;;;9.64;100.00;100547.31;10546243;28;20573;-70
2022/11/07 03:26:32;;;;;;;9.98;2.80;;;;;;;9.72;100.00;100553.03;10546051;28;20056;-70
2022/11/07 03:31:34;;;;;;;10.48;3.35;;;;;;;9.80;100.00;100552.72;10545855;28;20086;-69
2022/11/07 03:36:35;;;;;;;12.68;3.10;;;;;;;9.85;100.00;100537.72;10546503;28;20048;-71
2022/11/07 03:41:38;;;;;;;18.45;3.53;;;;;;;9.94;100.00;100552.09;10544282;28;20062;-70
2022/11/07 03:46:42;;;;;;;9.68;2.60;;;;;;;10.05;100.00;100554.22;10545806;28;20055;-72
2022/11/07 03:51:43;;;;;;;13.88;3.03;;;;;;;10.11;100.00;100545.28;10545744;28;20093;-72
2022/11/07 03:56:46;;;;;;;8.43;2.72;;;;;;;10.09;100.00;100554.94;10545559;28;20044;-68
2022/11/07 04:01:49;;;;;;;9.35;2.72;;;;;;;10.07;100.00;100548.94;10545055;28;20059;-66
2022/11/07 04:06:51;;;;;;;9.73;2.63;;;;;;;10.09;100.00;100552.34;10545129;28;20051;-66
2022/11/07 04:17:20;;;;;;;9.57;2.85;;;;;;;10.04;100.00;100550.78;10544003;28;20036;-69
2022/11/07 04:22:24;;;;;;;16.00;3.83;;;;;;;10.07;100.00;100541.13;10544527;28;20104;-68
2022/11/07 04:27:42;;;;;;;13.57;3.33;;;;;;;10.04;100.00;100553.41;10544320;28;20056;-68
2022/11/07 04:32:46;;;;;;;14.98;2.70;;;;;;;9.95;100.00;100548.56;10543959;28;20058;-65
2022/11/07 04:37:48;;;;;;;8.00;2.40;;;;;;;9.89;100.00;100554.06;10544042;28;20129;-67
2022/11/07 04:42:53;;;;;;;11.95;2.78;;;;;;;9.88;100.00;100557.56;10541416;28;20059;-66
2022/11/07 04:47:55;;;;;;;12.82;3.33;;;;;;;9.85;100.00;100557.72;10543057;28;20144;-66
2022/11/07 04:52:57;;;;;;;9.85;2.70;;;;;;;9.86;100.00;100565.47;10543520;28;20109;-66
2022/11/07 04:58:00;;;;;;;14.02;3.45;;;;;;;9.92;100.00;100561.75;10542687;28;20062;-68
2022/11/07 05:03:03;;;;;;;10.50;2.40;;;;;;;9.97;100.00;100561.53;10542701;28;20115;-65
2022/11/07 05:08:06;;;;;;;14.48;2.92;;;;;;;9.94;100.00;100557.31;10542356;28;20040;-69
2022/11/07 05:13:10;;;;;;;16.08;2.92;;;;;;;9.90;100.00;100566.19;10540338;28;20097;-67
2022/11/07 05:18:11;;;;;;;13.15;2.95;;;;;;;9.97;100.00;100566.75;10541932;28;20443;-67
2022/11/07 05:23:16;;;;;;;12.18;2.90;;;;;;;9.97;100.00;100569.38;10542062;28;20059;-67
2022/11/07 05:28:21;;;;;;;14.63;3.40;;;;;;;9.95;100.00;100569.44;10541691;28;20104;-67
2022/11/07 05:33:26;;;;;;;11.25;2.72;;;;;;;10.03;100.00;100576.94;10541462;28;20453;-66
2022/11/07 05:38:27;;;;;;;13.35;2.85;;;;;;;10.07;100.00;100577.63;10540424;28;20442;-67
2022/11/07 05:43:32;;;;;;;19.35;3.35;;;;;;;10.15;100.00;100580.72;10520002;28;20129;-68
2022/11/07 05:48:34;;;;;;;10.68;2.95;;;;;;;10.18;100.00;100580.59;10519505;28;20521;-66
2022/11/07 05:53:37;;;;;;;10.95;2.75;;;;;;;10.17;100.00;100571.09;10525520;28;20097;-67
2022/11/07 05:58:40;;;;;;;12.93;3.05;;;;;;;10.19;100.00;100577.06;10539526;28;20515;-66
2022/11/07 06:03:41;;;;;;;14.82;3.40;;;;;;;10.19;100.00;100571.84;10530860;28;20124;-67
2022/11/07 06:08:43;;;;;;;15.52;3.42;;;;;;;10.25;100.00;100576.81;10496968;28;20106;-66
2022/11/07 06:13:47;;;;;;;15.10;3.70;;;;;;;10.24;100.00;100572.50;10495945;28;20056;-66
2022/11/07 06:18:49;;;;;;;11.45;2.95;;;;;;;10.27;100.00;100574.94;10496862;28;20431;-64
2022/11/07 06:23:52;;;;;;;14.68;3.42;;;;;;;10.34;100.00;100585.13;10496556;28;20059;-65
2022/11/07 06:28:55;;;;;;;12.93;2.83;;;;;;;10.41;100.00;100578.72;10497104;28;20052;-66
2022/11/07 06:33:58;;;;;;;10.75;2.75;;;;;;;10.42;100.00;100580.41;10497324;28;20053;-64
2022/11/07 06:38:59;;;;;;;12.70;3.13;;;;;;;10.46;100.00;100592.41;10496732;28;20683;-66
2022/11/07 06:44:03;;;;;;;11.60;2.75;;;;;;;10.56;100.00;100598.06;10494794;28;20094;-66
2022/11/07 06:49:04;;;;;;;11.45;3.00;;;;;;;10.60;100.00;100596.16;10496654;28;20102;-65
2022/11/07 06:54:08;;;;;;;14.60;3.10;;;;;;;10.61;100.00;100608.28;10496619;28;20409;-66
2022/11/07 06:59:11;;;;;;;9.32;2.63;;;;;;;10.65;100.00;100615.91;10519538;28;20504;-65
2022/11/07 07:04:15;;;;;;;11.20;2.55;;;;;;;10.72;100.00;100616.47;10516006;28;20059;-68
2022/11/07 07:09:16;;;;;;;16.65;3.45;;;;;;;10.73;100.00;100620.75;10497401;28;20048;-66
2022/11/07 07:14:19;;;;;;;12.23;3.22;;;;;;;10.81;100.00;100631.69;10532317;28;20107;-67
2022/11/07 07:19:21;;;;;;;10.38;2.50;;;;;;;10.85;100.00;100636.75;10537336;28;20067;-67
2022/11/07 07:24:23;;;;;;;20.52;3.53;;;;;;;10.95;100.00;100640.66;10538422;28;20056;-68
2022/11/07 07:29:26;;;;;;;10.68;2.83;;;;;;;10.98;100.00;100640.47;10537657;28;20048;-65
2022/11/07 07:34:29;;;;;;;11.60;3.13;;;;;;;11.10;100.00;100646.91;10537823;28;20052;-67
2022/11/07 07:39:30;;;;;;;12.38;2.50;;;;;;;11.12;100.00;100657.28;10538099;28;20097;-63
2022/11/07 07:44:35;;;;;;;11.07;2.92;;;;;;;11.17;100.00;100655.28;10535207;28;20062;-64
2022/11/07 07:49:36;;;;;;;4.50;1.92;;;;;;;11.19;100.00;100650.84;10537307;28;20044;-65
2022/11/07 07:54:39;;;;;;;11.98;2.53;;;;;;;11.28;100.00;100660.84;10537488;28;20055;-67
2022/11/07 07:59:42;;;;;;;12.60;3.17;;;;;;;11.32;100.00;100664.97;10538255;28;20075;-65
2022/11/07 08:04:45;;;;;;;11.90;2.72;;;;;;;11.49;100.00;100684.22;10544953;28;20056;-64
2022/11/07 08:09:46;;;;;;;15.98;3.25;;;;;;;11.63;100.00;100664.41;10544395;28;20361;-64
2022/11/07 08:14:51;;;;;;;12.63;3.10;;;;;;;11.80;100.00;100687.09;10542361;28;20554;-65
2022/11/07 08:19:52;;;;;;;8.55;2.50;;;;;;;12.36;100.00;100679.88;10544481;28;20048;-65
2022/11/07 08:24:55;;;;;;;14.88;2.72;;;;;;;12.70;100.00;100679.03;10543919;28;20430;-64
2022/11/07 08:29:58;;;;;;;11.52;2.85;;;;;;;11.83;100.00;100685.16;10543853;28;20082;-64
2022/11/07 08:35:00;;;;;;;9.82;2.80;;;;;;;11.81;100.00;100683.56;10535591;28;20126;-63
2022/11/07 08:40:02;;;;;;;;;;;;;;;11.85;100.00;100691.16;10504662;28;20120;-67
2022/11/07 08:45:08;;;;;;;11.37;2.90;;;;;;;11.90;100.00;100697.94;10499397;28;19966;-65
2022/11/07 08:50:10;;;;;;;12.57;2.63;;;;;;;12.31;100.00;100702.84;10542633;28;20422;-65
2022/11/07 08:55:13;;;;;;;11.32;2.33;;;;;;;12.10;100.00;100717.88;10542959;28;20094;-65
2022/11/07 09:00:16;;;;;;;10.95;3.20;;;;;;;12.21;100.00;100719.94;10543135;28;20083;-67
2022/11/07 09:05:18;;;;;;;13.45;3.30;;;;;;;12.07;100.00;100724.09;10542803;28;20048;-65
2022/11/07 09:10:20;;;;;;;12.82;3.00;;;;;;;11.93;100.00;100729.16;10542636;28;20067;-65
2022/11/07 09:15:24;;;;;;;12.48;3.03;;;;;;;11.94;100.00;100736.09;10538994;28;20056;-63
2022/11/07 09:20:25;;;;;;;15.95;3.25;;;;;;;12.00;100.00;100734.94;10541876;28;20044;-66
2022/11/07 09:25:27;;;;;;;9.23;2.30;;;;;;;12.09;100.00;100739.72;10542244;28;20052;-63
2022/11/07 09:30:31;;;;;;;;;;;;;;;12.18;100.00;100748.88;10541681;28;20061;-64
2022/11/07 09:35:33;;;;;;;19.08;2.97;;;;;;;12.25;100.00;100752.84;10541035;28;19970;-64
2022/11/07 09:40:49;;;;;;;13.70;3.10;;;;;;;12.25;100.00;100742.38;10541453;28;20101;-65
2022/11/07 09:46:03;;;;;;;7.97;2.80;;;;;;;12.41;100.00;100754.69;10537957;28;20373;-66
2022/11/07 09:51:10;;;;;;;10.02;2.97;;;;;;;12.36;100.00;100747.91;10540543;28;20105;-65
2022/11/07 09:56:15;;;;;;;13.55;2.85;;;;;;;12.34;100.00;100754.16;10540327;28;20065;-68
2022/11/07 10:01:21;;;;;;;13.07;2.97;;;;;;;12.33;100.00;100748.09;10540113;28;20050;-64
2022/11/07 10:06:28;;;;;;;10.60;2.50;;;;;;;12.68;100.00;100751.56;10539647;28;20051;-67
2022/11/07 10:11:37;;;;;;;10.50;3.30;;;;;;;12.79;100.00;100749.22;10537647;28;20094;-64
2022/11/07 10:17:04;;;;;;;10.98;3.00;;;;;;;12.78;100.00;100755.38;10539271;28;20060;-68
2022/11/07 10:22:21;;;;;;;11.52;2.65;;;;;;;12.85;100.00;100758.53;10538989;28;20112;-70
2022/11/07 10:27:23;;;;;;;9.02;2.72;;;;;;;13.22;100.00;100766.16;10539444;28;20101;-65
2022/11/07 10:32:34;;;;;;;;;;;;;;;13.20;100.00;100762.75;10539971;28;20548;-66
2022/11/07 10:37:36;;;;;;;7.05;2.35;;;;;;;13.20;100.00;100768.88;10538954;28;19920;-64
2022/11/07 10:42:38;;;;;;;13.73;3.67;;;;;;;13.39;100.00;100771.31;10535686;28;20044;-64
2022/11/07 10:47:41;;;;;;;11.60;2.78;;;;;;;13.44;100.00;100786.78;10536433;28;20097;-66
2022/11/07 10:52:53;;;;;;;10.05;2.72;;;;;;;13.34;100.00;100770.72;10536699;28;20054;-66
2022/11/07 10:58:04;;;;;;;10.98;2.97;;;;;;;13.29;100.00;100798.97;10536644;28;20056;-66
2022/11/07 11:03:25;;;;;;;17.63;3.17;;;;;;;13.32;100.00;100787.47;10536249;28;20109;-66
2022/11/07 11:08:30;;;;;;;7.35;2.50;;;;;;;13.22;100.00;100795.84;10536626;28;20063;-66
2022/11/07 11:13:34;;;;;;;11.25;2.63;;;;;;;13.14;100.00;100791.00;10533847;28;20079;-68
2022/11/07 11:18:37;;;;;;;9.50;2.53;;;;;;;13.22;100.00;100787.13;10536012;28;20143;-67
2022/11/07 11:23:45;;;;;;;13.10;3.03;;;;;;;13.28;100.00;100776.31;10536805;28;20048;-64
2022/11/07 11:28:55;;;;;;;10.20;3.28;;;;;;;13.37;100.00;100770.56;10535599;28;20055;-66
2022/11/07 11:34:05;;;;;;;7.38;2.35;;;;;;;13.55;100.00;100767.84;10535793;28;20052;-64
2022/11/07 11:39:25;;;;;;;12.05;2.67;;;;;;;13.74;100.00;100761.56;10544110;28;20048;-65
2022/11/07 11:44:36;;;;;;;13.27;3.10;;;;;;;13.75;100.00;100764.13;10541431;28;20139;-64
2022/11/07 11:49:45;;;;;;;;;;;;;;;14.02;100.00;100754.72;10544227;28;20048;-64
2022/11/07 11:54:49;;;;;;;10.43;3.20;;;;;;;14.39;98.55;100763.06;10543202;28;19988;-65
2022/11/07 12:00:06;;;;;;;13.05;3.22;;;;;;;14.18;99.51;100759.06;10521347;28;20109;-63
2022/11/07 12:05:34;;;;;;;12.90;2.88;;;;;;;14.00;99.08;100759.22;10542540;28;20102;-67
2022/11/07 12:10:49;;;;;;;10.13;2.35;;;;;;;13.75;100.00;100763.25;10543481;28;20101;-64
2022/11/07 12:16:08;;;;;;;8.57;2.50;;;;;;;13.82;100.00;100764.59;10529682;28;20045;-66
2022/11/07 12:21:30;;;;;;;13.13;2.75;;;;;;;14.09;100.00;100763.94;10530765;28;20074;-63
2022/11/07 12:26:38;;;;;;;;;;;;;;;14.29;97.74;100767.16;10542898;28;20052;-63
2022/11/07 12:32:01;;;;;;;12.25;2.70;;;;;;;13.99;98.38;100775.91;10542054;28;19920;-65
2022/11/07 12:37:38;;;;;;;9.32;2.78;;;;;;;14.03;99.14;100766.94;10541695;28;20103;-68
2022/11/07 12:42:59;;;;;;;12.60;3.20;;;;;;;14.35;98.21;100766.81;10538220;28;20048;-68
2022/11/07 12:48:39;;;;;;;14.20;2.47;;;;;;;14.18;99.25;100766.94;10541496;28;20044;-66
2022/11/07 12:53:56;;;;;;;10.80;2.83;;;;;;;14.20;99.21;100757.22;10534174;28;20129;-65
2022/11/07 12:59:08;;;;;;;9.70;2.50;;;;;;;14.07;98.57;100763.19;10535890;28;20078;-65
2022/11/07 13:04:19;;;;;;;11.95;2.97;;;;;;;14.07;100.00;100755.31;10498885;28;20041;-64
2022/11/07 13:09:37;;;;;;;9.83;2.70;;;;;;;14.15;100.00;100750.47;10499263;28;20550;-65
2022/11/07 13:14:41;;;;;;;8.55;2.40;;;;;;;13.98;100.00;100748.81;10496660;28;20397;-66
2022/11/07 13:19:45;;;;;;;10.32;3.03;;;;;;;13.87;100.00;100738.97;10498863;28;20569;-64
2022/11/07 13:24:54;;;;;;;8.68;2.67;;;;;;;13.71;100.00;100746.00;10498465;28;20110;-64
2022/11/07 13:29:56;;;;;;;11.13;3.10;;;;;;;13.61;100.00;100750.94;10498288;28;20053;-67
2022/11/07 13:34:59;;;;;;;7.57;2.58;;;;;;;13.62;100.00;100752.66;10497972;28;20512;-64
2022/11/07 13:40:20;;;;;;;5.35;1.98;;;;;;;13.68;100.00;100739.16;10497678;28;20049;-67
2022/11/07 13:45:29;;;;;;;12.87;2.80;;;;;;;13.84;100.00;100736.53;10495381;28;20059;-64
2022/11/07 13:50:41;;;;;;;11.40;2.83;;;;;;;13.88;100.00;100732.78;10497245;28;20459;-67
2022/11/07 13:55:55;;;;;;;8.30;2.50;;;;;;;14.00;100.00;100730.38;10497447;28;20056;-65
2022/11/07 14:01:08;;;;;;;10.05;2.45;;;;;;;13.90;100.00;100730.91;10501977;28;20040;-65
2022/11/07 14:06:14;;;;;;;9.35;2.67;;;;;;;13.92;100.00;100738.69;10538766;28;20050;-65
2022/11/07 14:11:21;;;;;;;10.85;2.92;;;;;;;14.00;100.00;100730.38;10538945;28;20047;-64
2022/11/07 14:16:29;;;;;;;7.38;2.10;;;;;;;13.92;100.00;100738.69;10537125;28;20067;-66
2022/11/07 14:21:35;;;;;;;6.57;2.47;;;;;;;13.92;100.00;100740.47;10538867;28;20071;-66
2022/11/07 14:26:39;;;;;;;9.35;2.80;;;;;;;13.92;100.00;100732.59;10538066;28;20055;-68
2022/11/07 14:31:41;;;;;;;8.80;2.50;;;;;;;13.85;100.00;100742.59;10536147;28;20150;-65
2022/11/07 14:36:47;;;;;;;9.43;2.83;;;;;;;13.83;100.00;100732.22;10536181;28;20097;-63
2022/11/07 14:41:52;;;;;;;14.35;3.08;;;;;;;13.81;100.00;100747.19;10533760;28;20052;-66
2022/11/07 14:46:55;;;;;;;11.82;3.00;;;;;;;13.83;100.00;100734.84;10536359;28;20144;-63
2022/11/07 14:51:57;;;;;;;8.35;2.50;;;;;;;13.88;100.00;100732.78;10528663;28;20090;-64
2022/11/07 14:57:02;;;;;;;8.85;2.47;;;;;;;13.87;100.00;100725.00;10493774;28;20094;-64
2022/11/07 15:02:29;;;;;;;13.30;2.75;;;;;;;13.78;100.00;100729.84;10496823;28;20535;-65
2022/11/07 15:07:34;;;;;;;14.65;2.67;;;;;;;13.71;100.00;100727.66;10535907;28;20052;-65
2022/11/07 15:12:50;;;;;;;8.00;2.63;;;;;;;13.67;100.00;100732.25;10531265;28;20049;-67
2022/11/07 15:17:56;;;;;;;10.90;2.55;;;;;;;13.61;100.00;100743.06;10534893;28;20112;-64
2022/11/07 15:22:58;;;;;;;9.82;2.85;;;;;;;13.62;100.00;100737.75;10535316;28;20115;-63
2022/11/07 15:28:24;;;;;;;11.80;2.80;;;;;;;13.59;100.00;100727.41;10498486;28;1041427;-67
2022/11/07 15:33:31;;;;;;;10.73;2.70;;;;;;;13.54;100.00;100733.88;10537138;28;20048;-65
2022/11/07 15:38:35;;;;;;;10.82;2.72;;;;;;;13.50;100.00;100738.44;10536757;28;20062;-63
2022/11/07 15:43:38;;;;;;;10.07;2.95;;;;;;;13.48;100.00;100740.28;10534279;28;20068;-64
2022/11/07 15:48:42;;;;;;;9.77;2.53;;;;;;;13.51;100.00;100745.38;10535756;28;20088;-64
2022/11/07 15:53:43;;;;;;;7.32;2.30;;;;;;;13.41;100.00;100744.19;10513733;28;20268;-64
2022/11/07 15:58:47;;;;;;;7.53;2.33;;;;;;;13.45;100.00;100729.97;10494347;28;20081;-64
2022/11/07 16:03:49;;;;;;;6.78;2.33;;;;;;;13.45;100.00;100735.22;10494998;28;20094;-64
2022/11/07 16:08:50;;;;;;;5.82;2.22;;;;;;;13.51;100.00;100737.50;10494611;28;20041;-64
2022/11/07 16:13:53;;;;;;;12.95;2.40;;;;;;;13.52;100.00;100737.41;10491318;28;20077;-62
2022/11/07 16:18:55;;;;;;;9.70;2.75;;;;;;;13.43;100.00;100734.44;10494238;28;20067;-64
2022/11/07 16:23:56;;;;;;;13.32;2.85;;;;;;;13.46;100.00;100742.13;10498893;28;20561;-64
2022/11/07 16:28:59;;;;;;;9.27;2.67;;;;;;;13.47;100.00;100754.31;10523282;28;20117;-64
2022/11/07 16:34:02;;;;;;;9.50;2.80;;;;;;;13.52;100.00;100752.31;10541845;28;20474;-65
2022/11/07 16:39:07;;;;;;;11.52;3.13;;;;;;;13.49;100.00;100758.56;10541262;28;20043;-65
2022/11/07 16:44:12;;;;;;;11.75;2.85;;;;;;;13.54;100.00;100750.44;10533693;28;20047;-64
2022/11/07 16:49:22;;;;;;;10.27;2.95;;;;;;;13.48;100.00;100735.03;10541184;28;20047;-63
2022/11/07 16:54:24;;;;;;;10.40;2.75;;;;;;;13.40;100.00;100748.56;10539986;28;20563;-64
2022/11/07 16:59:27;;;;;;;10.80;2.65;;;;;;;13.35;100.00;100753.22;10539520;28;20055;-63
2022/11/07 17:04:29;;;;;;;9.60;2.80;;;;;;;13.36;100.00;100755.78;10538995;28;20048;-64
2022/11/07 17:09:30;;;;;;;9.63;3.08;;;;;;;13.44;100.00;100770.22;10539196;28;20491;-66
2022/11/07 17:14:33;;;;;;;9.05;2.78;;;;;;;13.44;100.00;100770.22;10536359;28;20407;-64
2022/11/07 17:19:35;;;;;;;8.43;2.78;;;;;;;13.51;100.00;100766.34;10538585;28;20070;-72
2022/11/07 17:24:37;;;;;;;;;;;;;;;13.49;100.00;100769.03;10538960;28;20044;-72
2022/11/07 17:29:40;;;;;;;8.95;2.90;;;;;;;13.56;100.00;100774.81;10538290;28;19923;-75
2022/11/07 17:34:43;;;;;;;5.65;2.47;;;;;;;13.56;100.00;100769.56;10537480;28;20055;-74
2022/11/07 17:39:46;;;;;;;8.82;3.10;;;;;;;13.55;100.00;100767.03;10537843;28;20064;-75
2022/11/07 17:44:49;;;;;;;8.68;3.33;;;;;;;13.54;100.00;100766.16;10535406;28;20491;-74
2022/11/07 17:49:51;;;;;;;11.55;2.90;;;;;;;13.61;100.00;100758.81;10537426;28;20522;-73
2022/11/07 17:54:53;;;;;;;8.73;2.83;;;;;;;13.61;100.00;100757.03;10537039;28;20048;-75
2022/11/07 17:59:56;;;;;;;13.23;3.53;;;;;;;13.61;100.00;100753.56;10537238;28;20051;-74
2022/11/07 18:04:58;;;;;;;6.78;3.10;;;;;;;13.53;100.00;100764.50;10536861;28;20563;-74
2022/11/07 18:10:00;;;;;;;;;;;;;;;13.43;100.00;100773.75;10537453;28;20077;-77
2022/11/07 18:15:05;;;;;;;8.13;2.60;;;;;;;13.41;100.00;100765.16;10535138;28;19958;-77
2022/11/07 18:20:09;;;;;;;11.05;3.33;;;;;;;13.33;100.00;100758.56;10537951;28;20066;-72
2022/11/07 18:25:11;;;;;;;7.05;2.45;;;;;;;13.34;100.00;100752.38;10534241;28;20039;-72
2022/11/07 18:30:14;;;;;;;11.07;2.90;;;;;;;13.24;100.00;100769.56;10525736;28;20162;-63
2022/11/07 18:35:16;;;;;;;8.10;2.55;;;;;;;13.21;100.00;100767.94;10498424;28;20105;-63
2022/11/07 18:40:18;;;;;;;8.57;3.00;;;;;;;13.17;100.00;100770.81;10495276;28;20070;-64
2022/11/07 18:45:21;;;;;;;9.48;3.58;;;;;;;13.21;100.00;100769.72;10492763;28;20048;-66
2022/11/07 18:50:24;;;;;;;7.50;3.50;;;;;;;13.18;100.00;100764.63;10494012;28;20054;-68
2022/11/07 18:55:26;;;;;;;17.75;3.42;;;;;;;13.20;100.00;100768.00;10493415;28;20052;-65
2022/11/07 19:00:29;;;;;;;11.30;2.95;;;;;;;13.11;100.00;100775.44;10493352;28;20055;-64
2022/11/07 19:05:30;;;;;;;12.18;3.22;;;;;;;13.16;100.00;100769.97;10493402;28;20044;-64
2022/11/07 19:10:34;;;;;;;17.35;3.72;;;;;;;13.19;100.00;100768.94;10492949;28;20044;-64
2022/11/07 19:15:39;;;;;;;12.85;3.40;;;;;;;13.14;100.00;100775.28;10491152;28;20049;-66
2022/11/07 19:20:40;;;;;;;11.32;2.72;;;;;;;12.95;100.00;100774.59;10492670;28;20053;-65
2022/11/07 19:25:43;;;;;;;9.43;3.13;;;;;;;12.91;100.00;100778.31;10492722;28;20099;-63
2022/11/07 19:30:46;;;;;;;8.80;3.20;;;;;;;12.73;100.00;100780.97;10492015;28;20457;-64
2022/11/07 19:35:59;;;;;;;8.77;2.63;;;;;;;12.60;100.00;100781.59;10492413;28;20426;-65
2022/11/07 19:41:04;;;;;;;10.05;3.22;;;;;;;12.58;100.00;100778.22;10492395;28;20057;-64
2022/11/07 19:46:10;;;;;;;10.32;3.00;;;;;;;12.56;100.00;100782.69;10490480;28;20060;-66
2022/11/07 19:51:15;;;;;;;10.70;2.85;;;;;;;12.58;100.00;100778.22;10492518;28;20047;-65
2022/11/07 19:56:17;;;;;;;6.00;2.70;;;;;;;12.56;100.00;100779.25;10494057;28;20133;-67
2022/11/07 20:01:25;;;;;;;6.47;2.85;;;;;;;12.57;100.00;100773.94;10536322;28;20058;-64
2022/11/07 20:06:30;;;;;;;13.20;3.15;;;;;;;12.64;100.00;100776.22;10541478;28;20081;-64
2022/11/07 20:11:32;;;;;;;9.93;3.08;;;;;;;12.62;100.00;100785.00;10540799;28;20040;-64
2022/11/07 20:16:36;;;;;;;;;;;;;;;12.70;100.00;100779.34;10539653;28;20062;-66
2022/11/07 20:21:39;;;;;;;12.80;3.45;;;;;;;12.86;100.00;100783.78;10541013;28;19926;-64
2022/11/07 20:26:42;;;;;;;8.52;3.58;;;;;;;12.77;100.00;100790.38;10541124;28;20052;-64
2022/11/07 20:31:46;;;;;;;19.20;4.03;;;;;;;12.75;100.00;100789.59;10540117;28;20079;-65
2022/11/07 20:36:51;;;;;;;13.27;4.20;;;;;;;12.72;100.00;100797.59;10540168;28;20118;-65
2022/11/07 20:41:53;;;;;;;13.75;3.42;;;;;;;12.70;100.00;100795.06;10538035;28;20078;-64
2022/11/07 20:46:57;;;;;;;9.70;2.78;;;;;;;12.69;100.00;100796.00;10540580;28;20488;-64
2022/11/07 20:52:00;;;;;;;10.43;3.00;;;;;;;12.78;100.00;100797.28;10539704;28;20484;-67
2022/11/07 20:57:02;;;;;;;9.40;3.25;;;;;;;12.78;100.00;100789.44;10539874;28;20051;-64
2022/11/07 21:02:05;;;;;;;10.00;3.35;;;;;;;12.75;100.00;100790.44;10539128;28;20462;-65
2022/11/07 21:07:07;;;;;;;9.32;3.35;;;;;;;12.78;100.00;100789.44;10540410;28;20048;-64
2022/11/07 21:12:09;;;;;;;9.38;3.05;;;;;;;12.74;100.00;100793.13;10536984;28;20040;-66
2022/11/07 21:17:14;;;;;;;7.05;2.85;;;;;;;12.75;100.00;100790.44;10539262;28;20055;-65
2022/11/07 21:22:18;;;;;;;8.38;3.03;;;;;;;12.70;100.00;100791.59;10540399;28;20044;-64
2022/11/07 21:27:21;;;;;;;11.25;3.15;;;;;;;12.70;100.00;100786.38;10540517;28;20051;-64
2022/11/07 21:32:24;;;;;;;12.07;2.63;;;;;;;12.68;100.00;100788.22;10539680;28;20040;-64
2022/11/07 21:37:25;;;;;;;7.45;2.60;;;;;;;12.61;100.00;100785.94;10539490;28;20056;-64
2022/11/07 21:42:27;;;;;;;7.90;2.58;;;;;;;12.52;100.00;100788.19;10536842;28;20487;-65
2022/11/07 21:47:31;;;;;;;6.95;2.28;;;;;;;12.40;100.00;100779.16;10539070;28;20344;-64
2022/11/07 21:52:35;;;;;;;11.55;3.28;;;;;;;12.27;100.00;100787.66;10539725;28;20316;-65
2022/11/07 21:57:36;;;;;;;12.35;2.92;;;;;;;12.17;100.00;100784.66;10538720;28;20056;-64
2022/11/07 22:02:39;;;;;;;;;;;;;;;12.16;100.00;100782.09;10539038;28;20040;-68
2022/11/07 22:07:41;;;;;;;8.30;2.90;;;;;;;12.11;100.00;100782.31;10538122;28;20417;-63
2022/11/07 22:12:44;;;;;;;10.00;4.13;;;;;;;12.06;100.00;100769.50;10535969;28;20044;-64
2022/11/07 22:17:47;;;;;;;10.68;3.45;;;;;;;12.15;100.00;100769.97;10537625;28;20514;-64
2022/11/07 22:22:49;;;;;;;8.38;3.50;;;;;;;12.07;100.00;100762.47;10538276;28;20383;-63
2022/11/07 22:27:51;;;;;;;10.85;2.90;;;;;;;12.04;100.00;100760.84;10538214;28;20411;-65
2022/11/07 22:32:54;;;;;;;6.78;2.67;;;;;;;11.93;100.00;100750.91;10538000;28;20081;-65
2022/11/07 22:37:56;;;;;;;7.40;2.70;;;;;;;11.87;100.00;100745.97;10537532;28;20059;-64
2022/11/07 22:42:58;;;;;;;7.93;2.85;;;;;;;11.84;100.00;100746.97;10535122;28;20051;-65
2022/11/07 22:48:01;;;;;;;9.32;2.72;;;;;;;11.75;100.00;100742.22;10536956;28;20055;-65
2022/11/07 22:53:03;;;;;;;7.05;2.22;;;;;;;11.66;100.00;100737.44;10536710;28;20085;-65
2022/11/07 22:58:06;;;;;;;9.07;2.80;;;;;;;11.66;100.00;100737.44;10536861;28;20048;-66
2022/11/07 23:03:09;;;;;;;8.85;2.97;;;;;;;11.55;100.00;100728.34;10535858;28;20051;-65
2022/11/07 23:08:11;;;;;;;3.85;2.22;;;;;;;11.49;100.00;100726.03;10536124;28;20416;-63
2022/11/07 23:13:12;;;;;;;11.80;2.58;;;;;;;11.52;100.00;100720.66;10533423;28;20415;-65
2022/11/07 23:18:16;;;;;;;9.73;3.30;;;;;;;11.48;100.00;100719.13;10536576;28;20051;-65